sensor_id;sensor_type;location;lat;lon;timestamp;pressure;altitude;pressure_sealevel;temperature;humidity
35519;BME280;21627;48.216;16.482;2023-06-24T00:00:57;100150.31;;;17.62;100.00
35519;BME280;21627;48.216;16.482;2023-06-24T00:03:24;100147.50;;;17.70;100.00
35519;BME280;21627;48.216;16.482;2023-06-24T00:05:51;100155.47;;;17.65;100.00
35519;BME280;21627;48.216;16.482;2023-06-24T00:08:21;100148.44;;;17.67;100.00
35519;BME280;21627;48.216;16.482;2023-06-24T00:10:49;100159.09;;;17.58;100.00
35519;BME280;21627;48.216;16.482;2023-06-24T00:13:17;100156.47;;;17.58;100.00
35519;BME280;21627;48.216;16.482;2023-06-24T00:15:44;100149.41;;;17.63;100.00
35519;BME280;21627;48.216;16.482;2023-06-24T00:18:12;100149.63;;;17.54;100.00
35519;BME280;21627;48.216;16.482;2023-06-24T00:20:39;100153.00;;;17.59;100.00
35519;BME280;21627;48.216;16.482;2023-06-24T00:23:14;100163.56;;;17.53;100.00
35519;BME280;21627;48.216;16.482;2023-06-24T00:25:43;100164.56;;;17.49;100.00
35519;BME280;21627;48.216;16.482;2023-06-24T00:28:10;100161.88;;;17.50;100.00
35519;BME280;21627;48.216;16.482;2023-06-24T00:30:37;100159.28;;;17.50;100.00
35519;BME280;21627;48.216;16.482;2023-06-24T00:33:04;100159.19;;;17.55;100.00
35519;BME280;21627;48.216;16.482;2023-06-24T00:35:32;100155.81;;;17.50;100.00
35519;BME280;21627;48.216;16.482;2023-06-24T00:38:00;100156.03;;;17.39;100.00
35519;BME280;21627;48.216;16.482;2023-06-24T00:40:27;100156.00;;;17.41;100.00
35519;BME280;21627;48.216;16.482;2023-06-24T00:42:55;100157.75;;;17.40;100.00
35519;BME280;21627;48.216;16.482;2023-06-24T00:45:22;100146.47;;;17.38;100.00
35519;BME280;21627;48.216;16.482;2023-06-24T00:47:50;100149.13;;;17.37;100.00
35519;BME280;21627;48.216;16.482;2023-06-24T00:50:18;100137.69;;;17.41;100.00
35519;BME280;21627;48.216;16.482;2023-06-24T00:52:45;100147.88;;;17.53;100.00
35519;BME280;21627;48.216;16.482;2023-06-24T00:55:15;100152.19;;;17.56;100.00
35519;BME280;21627;48.216;16.482;2023-06-24T00:57:48;100151.41;;;17.52;100.00
35519;BME280;21627;48.216;16.482;2023-06-24T01:00:21;100145.31;;;17.51;100.00
35519;BME280;21627;48.216;16.482;2023-06-24T01:02:51;100153.13;;;17.53;100.00
35519;BME280;21627;48.216;16.482;2023-06-24T01:05:19;100155.81;;;17.50;100.00
35519;BME280;21627;48.216;16.482;2023-06-24T01:07:51;100155.06;;;17.43;100.00
35519;BME280;21627;48.216;16.482;2023-06-24T01:10:24;100150.66;;;17.47;100.00
35519;BME280;21627;48.216;16.482;2023-06-24T01:12:51;100165.31;;;17.54;100.00
35519;BME280;21627;48.216;16.482;2023-06-24T01:15:19;100174.88;;;17.53;100.00
35519;BME280;21627;48.216;16.482;2023-06-24T01:18:11;100165.31;;;17.54;100.00
35519;BME280;21627;48.216;16.482;2023-06-24T01:20:56;100145.38;;;17.48;100.00
35519;BME280;21627;48.216;16.482;2023-06-24T01:32:33;100163.47;;;17.58;100.00
35519;BME280;21627;48.216;16.482;2023-06-24T01:35:15;100157.50;;;17.51;100.00
35519;BME280;21627;48.216;16.482;2023-06-24T01:37:54;100167.03;;;17.55;100.00
35519;BME280;21627;48.216;16.482;2023-06-24T01:40:30;100166.88;;;17.61;100.00
35519;BME280;21627;48.216;16.482;2023-06-24T01:43:01;100165.09;;;17.63;100.00
35519;BME280;21627;48.216;16.482;2023-06-24T01:45:40;100183.38;;;17.63;100.00
35519;BME280;21627;48.216;16.482;2023-06-24T01:50:48;100181.69;;;17.62;100.00
35519;BME280;21627;48.216;16.482;2023-06-24T01:53:16;100186.66;;;17.73;100.00
35519;BME280;21627;48.216;16.482;2023-06-24T01:55:44;100187.66;;;17.69;100.00
35519;BME280;21627;48.216;16.482;2023-06-24T01:58:14;100178.03;;;17.69;100.00
35519;BME280;21627;48.216;16.482;2023-06-24T02:00:44;100182.47;;;17.66;100.00
35519;BME280;21627;48.216;16.482;2023-06-24T02:03:12;100169.53;;;17.60;100.00
35519;BME280;21627;48.216;16.482;2023-06-24T02:05:40;100173.69;;;17.68;100.00
35519;BME280;21627;48.216;16.482;2023-06-24T02:08:10;100182.56;;;17.61;100.00
35519;BME280;21627;48.216;16.482;2023-06-24T02:10:38;100177.41;;;17.58;100.00
35519;BME280;21627;48.216;16.482;2023-06-24T02:13:09;100168.72;;;17.58;100.00
35519;BME280;21627;48.216;16.482;2023-06-24T02:15:38;100167.84;;;17.57;100.00
35519;BME280;21627;48.216;16.482;2023-06-24T02:18:08;100157.50;;;17.51;100.00
35519;BME280;21627;48.216;16.482;2023-06-24T02:20:37;100159.38;;;17.46;100.00
35519;BME280;21627;48.216;16.482;2023-06-24T02:23:07;100167.03;;;17.55;100.00
35519;BME280;21627;48.216;16.482;2023-06-24T02:25:35;100161.63;;;17.61;100.00
35519;BME280;21627;48.216;16.482;2023-06-24T02:28:07;100151.34;;;17.53;100.00
35519;BME280;21627;48.216;16.482;2023-06-24T02:30:38;100145.34;;;17.50;100.00
35519;BME280;21627;48.216;16.482;2023-06-24T02:33:06;100149.66;;;17.52;100.00
35519;BME280;21627;48.216;16.482;2023-06-24T02:35:33;100166.19;;;17.53;100.00
35519;BME280;21627;48.216;16.482;2023-06-24T02:38:01;100156.56;;;17.55;100.00
35519;BME280;21627;48.216;16.482;2023-06-24T02:40:31;100151.47;;;17.49;100.00
35519;BME280;21627;48.216;16.482;2023-06-24T02:42:59;100167.09;;;17.52;100.00
35519;BME280;21627;48.216;16.482;2023-06-24T02:45:27;100150.38;;;17.59;100.00
35519;BME280;21627;48.216;16.482;2023-06-24T02:47:56;100154.03;;;17.52;100.00
35519;BME280;21627;48.216;16.482;2023-06-24T02:50:24;100151.34;;;17.53;100.00
35519;BME280;21627;48.216;16.482;2023-06-24T02:52:52;100167.19;;;17.47;100.00
35519;BME280;21627;48.216;16.482;2023-06-24T02:55:20;100160.19;;;17.48;100.00
35519;BME280;21627;48.216;16.482;2023-06-24T02:57:48;100165.19;;;17.59;100.00
35519;BME280;21627;48.216;16.482;2023-06-24T03:00:16;100164.25;;;17.61;100.00
35519;BME280;21627;48.216;16.482;2023-06-24T03:02:45;100173.19;;;17.51;100.00
35519;BME280;21627;48.216;16.482;2023-06-24T03:05:14;100163.78;;;17.44;100.00
35519;BME280;21627;48.216;16.482;2023-06-24T03:07:42;100165.66;;;17.39;100.00
35519;BME280;21627;48.216;16.482;2023-06-24T03:10:10;100173.41;;;17.42;100.00
35519;BME280;21627;48.216;16.482;2023-06-24T03:12:37;100163.03;;;17.39;100.00
35519;BME280;21627;48.216;16.482;2023-06-24T03:15:06;100169.03;;;17.42;100.00
35519;BME280;21627;48.216;16.482;2023-06-24T03:17:33;100166.50;;;17.39;100.00
35519;BME280;21627;48.216;16.482;2023-06-24T03:20:00;100159.28;;;17.50;100.00
35519;BME280;21627;48.216;16.482;2023-06-24T03:22:27;100173.38;;;17.43;100.00
35519;BME280;21627;48.216;16.482;2023-06-24T03:24:54;100170.88;;;17.39;100.00
35519;BME280;21627;48.216;16.482;2023-06-24T03:27:21;100174.25;;;17.44;100.00
35519;BME280;21627;48.216;16.482;2023-06-24T03:29:48;100181.34;;;17.37;100.00
35519;BME280;21627;48.216;16.482;2023-06-24T03:32:15;100183.81;;;17.45;100.00
35519;BME280;21627;48.216;16.482;2023-06-24T03:34:42;100183.97;;;17.36;100.00
35519;BME280;21627;48.216;16.482;2023-06-24T03:37:09;100183.22;;;17.30;100.00
35519;BME280;21627;48.216;16.482;2023-06-24T03:39:37;100181.53;;;17.28;100.00
35519;BME280;21627;48.216;16.482;2023-06-24T03:42:04;100173.59;;;17.33;100.00
35519;BME280;21627;48.216;16.482;2023-06-24T03:44:31;100172.69;;;17.35;100.00
35519;BME280;21627;48.216;16.482;2023-06-24T03:46:58;100171.81;;;17.35;100.00
35519;BME280;21627;48.216;16.482;2023-06-24T03:49:25;100176.31;;;17.28;100.00
35519;BME280;21627;48.216;16.482;2023-06-24T03:51:52;100168.47;;;17.28;100.00
35519;BME280;21627;48.216;16.482;2023-06-24T03:54:19;100170.16;;;17.30;100.00
35519;BME280;21627;48.216;16.482;2023-06-24T03:56:46;100158.06;;;17.26;100.00
35519;BME280;21627;48.216;16.482;2023-06-24T03:59:14;100186.75;;;17.28;100.00
35519;BME280;21627;48.216;16.482;2023-06-24T04:01:41;100185.00;;;17.28;100.00
35519;BME280;21627;48.216;16.482;2023-06-24T04:04:08;100170.31;;;17.23;100.00
35519;BME280;21627;48.216;16.482;2023-06-24T04:06:35;100191.28;;;17.21;100.00
35519;BME280;21627;48.216;16.482;2023-06-24T04:09:03;100199.97;;;17.20;100.00
35519;BME280;21627;48.216;16.482;2023-06-24T04:11:30;100191.19;;;17.24;100.00
35519;BME280;21627;48.216;16.482;2023-06-24T04:13:57;100199.09;;;17.21;100.00
35519;BME280;21627;48.216;16.482;2023-06-24T04:16:24;100200.91;;;17.18;100.00
35519;BME280;21627;48.216;16.482;2023-06-24T04:18:51;100204.38;;;17.18;100.00
35519;BME280;21627;48.216;16.482;2023-06-24T04:21:18;100209.66;;;17.17;100.00
35519;BME280;21627;48.216;16.482;2023-06-24T04:23:45;100208.81;;;17.13;100.00
35519;BME280;21627;48.216;16.482;2023-06-24T04:26:13;100211.44;;;17.15;100.00
35519;BME280;21627;48.216;16.482;2023-06-24T04:28:40;100214.03;;;17.15;100.00
35519;BME280;21627;48.216;16.482;2023-06-24T04:31:07;100220.19;;;17.11;100.00
35519;BME280;21627;48.216;16.482;2023-06-24T04:33:34;100222.78;;;17.14;100.00
35519;BME280;21627;48.216;16.482;2023-06-24T04:36:01;100217.44;;;17.18;100.00
35519;BME280;21627;48.216;16.482;2023-06-24T04:38:28;100221.88;;;17.15;100.00
35519;BME280;21627;48.216;16.482;2023-06-24T04:40:55;100227.94;;;17.17;100.00
35519;BME280;21627;48.216;16.482;2023-06-24T04:43:26;100232.19;;;17.21;100.00
35519;BME280;21627;48.216;16.482;2023-06-24T04:45:56;100226.78;;;17.30;100.00
35519;BME280;21627;48.216;16.482;2023-06-24T04:48:24;100240.00;;;17.24;100.00
35519;BME280;21627;48.216;16.482;2023-06-24T04:50:51;100232.16;;;17.24;100.00
35519;BME280;21627;48.216;16.482;2023-06-24T04:53:21;100227.75;;;17.26;100.00
35519;BME280;21627;48.216;16.482;2023-06-24T04:55:48;100233.81;;;17.28;100.00
35519;BME280;21627;48.216;16.482;2023-06-24T04:58:15;100218.13;;;17.28;100.00
35519;BME280;21627;48.216;16.482;2023-06-24T05:00:43;100226.94;;;17.22;100.00
35519;BME280;21627;48.216;16.482;2023-06-24T05:03:10;100229.47;;;17.27;100.00
35519;BME280;21627;48.216;16.482;2023-06-24T05:05:37;100241.72;;;17.25;100.00
35519;BME280;21627;48.216;16.482;2023-06-24T05:08:05;100241.56;;;17.33;100.00
35519;BME280;21627;48.216;16.482;2023-06-24T05:10:32;100229.41;;;17.32;100.00
35519;BME280;21627;48.216;16.482;2023-06-24T05:12:59;100244.16;;;17.33;100.00
35519;BME280;21627;48.216;16.482;2023-06-24T05:15:26;100233.84;;;17.26;100.00
35519;BME280;21627;48.216;16.482;2023-06-24T05:17:55;100256.41;;;17.30;100.00
35519;BME280;21627;48.216;16.482;2023-06-24T05:20:22;100254.63;;;17.33;100.00
35519;BME280;21627;48.216;16.482;2023-06-24T05:22:49;100244.25;;;17.28;100.00
35519;BME280;21627;48.216;16.482;2023-06-24T05:25:17;100257.31;;;17.29;100.00
35519;BME280;21627;48.216;16.482;2023-06-24T05:27:44;100259.84;;;17.33;100.00
35519;BME280;21627;48.216;16.482;2023-06-24T05:30:11;100258.94;;;17.35;100.00
35519;BME280;21627;48.216;16.482;2023-06-24T05:32:40;100273.59;;;17.42;100.00
35519;BME280;21627;48.216;16.482;2023-06-24T05:35:07;100270.25;;;17.36;100.00
35519;BME280;21627;48.216;16.482;2023-06-24T05:37:34;100284.06;;;17.42;100.00
35519;BME280;21627;48.216;16.482;2023-06-24T05:40:02;100277.00;;;17.47;100.00
35519;BME280;21627;48.216;16.482;2023-06-24T05:42:32;100283.22;;;17.40;100.00
35519;BME280;21627;48.216;16.482;2023-06-24T05:45:00;100283.81;;;17.55;100.00
35519;BME280;21627;48.216;16.482;2023-06-24T05:47:27;100281.13;;;17.59;100.00
35519;BME280;21627;48.216;16.482;2023-06-24T05:49:54;100290.84;;;17.51;100.00
35519;BME280;21627;48.216;16.482;2023-06-24T05:52:22;100302.81;;;17.63;100.00
35519;BME280;21627;48.216;16.482;2023-06-24T05:54:49;100301.00;;;17.66;100.00
35519;BME280;21627;48.216;16.482;2023-06-24T05:57:16;100298.28;;;17.71;100.00
35519;BME280;21627;48.216;16.482;2023-06-24T05:59:43;100309.75;;;17.65;100.00
35519;BME280;21627;48.216;16.482;2023-06-24T06:02:10;100303.66;;;17.65;100.00
35519;BME280;21627;48.216;16.482;2023-06-24T06:04:38;100304.50;;;17.67;100.00
35519;BME280;21627;48.216;16.482;2023-06-24T06:07:06;100321.13;;;17.63;100.00
35519;BME280;21627;48.216;16.482;2023-06-24T06:09:33;100328.06;;;17.64;100.00
35519;BME280;21627;48.216;16.482;2023-06-24T06:12:00;100325.75;;;17.48;100.00
35519;BME280;21627;48.216;16.482;2023-06-24T06:14:27;100332.94;;;17.39;100.00
35519;BME280;21627;48.216;16.482;2023-06-24T06:16:54;100339.91;;;17.38;100.00
35519;BME280;21627;48.216;16.482;2023-06-24T06:19:22;100332.06;;;17.38;100.00
35519;BME280;21627;48.216;16.482;2023-06-24T06:21:52;100336.47;;;17.36;100.00
35519;BME280;21627;48.216;16.482;2023-06-24T06:24:19;100336.44;;;17.38;100.00
35519;BME280;21627;48.216;16.482;2023-06-24T06:26:46;100336.56;;;17.32;100.00
35519;BME280;21627;48.216;16.482;2023-06-24T06:29:13;100335.81;;;17.23;100.00
35519;BME280;21627;48.216;16.482;2023-06-24T06:31:40;100333.91;;;17.33;100.00
35519;BME280;21627;48.216;16.482;2023-06-24T06:34:08;100350.56;;;17.26;100.00
35519;BME280;21627;48.216;16.482;2023-06-24T06:36:35;100347.88;;;17.32;100.00
35519;BME280;21627;48.216;16.482;2023-06-24T06:39:03;100350.50;;;17.30;100.00
35519;BME280;21627;48.216;16.482;2023-06-24T06:41:30;100342.59;;;17.34;100.00
35519;BME280;21627;48.216;16.482;2023-06-24T06:43:57;100343.63;;;17.26;100.00
35519;BME280;21627;48.216;16.482;2023-06-24T06:46:24;100345.44;;;17.21;100.00
35519;BME280;21627;48.216;16.482;2023-06-24T06:48:51;100345.47;;;17.20;100.00
35519;BME280;21627;48.216;16.482;2023-06-24T06:51:18;100344.69;;;17.15;100.00
35519;BME280;21627;48.216;16.482;2023-06-24T06:53:46;100352.44;;;17.19;100.00
35519;BME280;21627;48.216;16.482;2023-06-24T06:56:23;100361.13;;;17.21;100.00
35519;BME280;21627;48.216;16.482;2023-06-24T06:58:54;100360.31;;;17.18;100.00
35519;BME280;21627;48.216;16.482;2023-06-24T07:01:21;100362.97;;;17.15;100.00
35519;BME280;21627;48.216;16.482;2023-06-24T07:03:49;100356.91;;;17.14;100.00
35519;BME280;21627;48.216;16.482;2023-06-24T07:06:20;100355.06;;;17.19;100.00
35519;BME280;21627;48.216;16.482;2023-06-24T07:08:47;100359.38;;;17.20;100.00
35519;BME280;21627;48.216;16.482;2023-06-24T07:11:14;100361.22;;;17.15;100.00
35519;BME280;21627;48.216;16.482;2023-06-24T07:13:41;100362.78;;;17.25;100.00
35519;BME280;21627;48.216;16.482;2023-06-24T07:16:08;100354.09;;;17.25;100.00
35519;BME280;21627;48.216;16.482;2023-06-24T07:18:35;100359.88;;;17.41;100.00
35519;BME280;21627;48.216;16.482;2023-06-24T07:21:03;100368.50;;;17.46;100.00
35519;BME280;21627;48.216;16.482;2023-06-24T07:23:30;100364.19;;;17.43;100.00
35519;BME280;21627;48.216;16.482;2023-06-24T07:25:57;100361.28;;;17.59;100.00
35519;BME280;21627;48.216;16.482;2023-06-24T07:28:26;100370.66;;;17.70;100.00
35519;BME280;21627;48.216;16.482;2023-06-24T07:30:53;100354.91;;;17.73;100.00
35519;BME280;21627;48.216;16.482;2023-06-24T07:33:21;100358.16;;;17.88;100.00
35519;BME280;21627;48.216;16.482;2023-06-24T07:35:48;100358.00;;;17.95;100.00
35519;BME280;21627;48.216;16.482;2023-06-24T07:38:15;100356.16;;;17.99;100.00
35519;BME280;21627;48.216;16.482;2023-06-24T07:40:42;100358.50;;;18.13;100.00
35519;BME280;21627;48.216;16.482;2023-06-24T07:43:09;100366.53;;;18.05;100.00
35519;BME280;21627;48.216;16.482;2023-06-24T07:45:36;100369.88;;;18.12;100.00
35519;BME280;21627;48.216;16.482;2023-06-24T07:48:04;100378.50;;;18.17;100.00
35519;BME280;21627;48.216;16.482;2023-06-24T07:50:32;100374.13;;;18.17;100.00
35519;BME280;21627;48.216;16.482;2023-06-24T07:52:59;100373.28;;;18.15;100.00
35519;BME280;21627;48.216;16.482;2023-06-24T07:55:26;100400.22;;;18.21;100.00
35519;BME280;21627;48.216;16.482;2023-06-24T07:57:53;100392.59;;;18.10;100.00
35519;BME280;21627;48.216;16.482;2023-06-24T08:00:20;100396.78;;;18.19;100.00
35519;BME280;21627;48.216;16.482;2023-06-24T08:02:48;100390.06;;;18.07;100.00
35519;BME280;21627;48.216;16.482;2023-06-24T08:05:15;100395.38;;;18.02;100.00
35519;BME280;21627;48.216;16.482;2023-06-24T08:07:48;100401.72;;;17.90;100.00
35519;BME280;21627;48.216;16.482;2023-06-24T08:10:18;100401.78;;;17.87;100.00
35519;BME280;21627;48.216;16.482;2023-06-24T08:12:45;100404.38;;;17.87;100.00
35519;BME280;21627;48.216;16.482;2023-06-24T08:15:13;100409.69;;;17.84;100.00
35519;BME280;21627;48.216;16.482;2023-06-24T08:17:40;100407.06;;;17.84;100.00
35519;BME280;21627;48.216;16.482;2023-06-24T08:20:08;100405.31;;;17.85;100.00
35519;BME280;21627;48.216;16.482;2023-06-24T08:22:35;100412.44;;;17.73;100.00
35519;BME280;21627;48.216;16.482;2023-06-24T08:25:02;100419.44;;;17.73;100.00
35519;BME280;21627;48.216;16.482;2023-06-24T08:27:29;100424.81;;;17.65;100.00
35519;BME280;21627;48.216;16.482;2023-06-24T08:29:56;100406.63;;;17.59;100.00
35519;BME280;21627;48.216;16.482;2023-06-24T08:32:24;100418.81;;;17.60;100.00
35519;BME280;21627;48.216;16.482;2023-06-24T08:34:51;100424.03;;;17.60;100.00
35519;BME280;21627;48.216;16.482;2023-06-24T08:37:18;100424.91;;;17.61;100.00
35519;BME280;21627;48.216;16.482;2023-06-24T08:39:45;100426.72;;;17.56;100.00
35519;BME280;21627;48.216;16.482;2023-06-24T08:42:12;100429.28;;;17.59;100.00
35519;BME280;21627;48.216;16.482;2023-06-24T08:44:39;100422.34;;;17.56;100.00
35519;BME280;21627;48.216;16.482;2023-06-24T08:47:07;100424.88;;;17.62;100.00
35519;BME280;21627;48.216;16.482;2023-06-24T08:49:44;100428.34;;;17.64;100.00
35519;BME280;21627;48.216;16.482;2023-06-24T08:52:16;100437.28;;;17.51;100.00
35519;BME280;21627;48.216;16.482;2023-06-24T08:54:50;100439.94;;;17.48;100.00
35519;BME280;21627;48.216;16.482;2023-06-24T08:57:17;100444.31;;;17.47;100.00
35519;BME280;21627;48.216;16.482;2023-06-24T08:59:46;100432.22;;;17.40;100.00
35519;BME280;21627;48.216;16.482;2023-06-24T09:02:13;100445.22;;;17.45;100.00
35519;BME280;21627;48.216;16.482;2023-06-24T09:04:41;100446.16;;;17.41;100.00
35519;BME280;21627;48.216;16.482;2023-06-24T09:07:08;100450.44;;;17.46;100.00
35519;BME280;21627;48.216;16.482;2023-06-24T09:09:44;100453.91;;;17.47;100.00
35519;BME280;21627;48.216;16.482;2023-06-24T09:12:14;100451.31;;;17.47;100.00
35519;BME280;21627;48.216;16.482;2023-06-24T09:14:48;100456.50;;;17.48;100.00
35519;BME280;21627;48.216;16.482;2023-06-24T09:17:16;100446.94;;;17.46;100.00
35519;BME280;21627;48.216;16.482;2023-06-24T09:19:44;100447.78;;;17.48;100.00
35519;BME280;21627;48.216;16.482;2023-06-24T09:22:11;100443.47;;;17.45;100.00
35519;BME280;21627;48.216;16.482;2023-06-24T09:24:47;100440.84;;;17.45;100.00
35519;BME280;21627;48.216;16.482;2023-06-24T09:27:16;100445.16;;;17.48;100.00
35519;BME280;21627;48.216;16.482;2023-06-24T09:29:46;100446.00;;;17.50;100.00
35519;BME280;21627;48.216;16.482;2023-06-24T09:32:14;100453.84;;;17.51;100.00
35519;BME280;21627;48.216;16.482;2023-06-24T09:34:41;100456.47;;;17.51;100.00
35519;BME280;21627;48.216;16.482;2023-06-24T09:37:08;100454.44;;;17.67;100.00
35519;BME280;21627;48.216;16.482;2023-06-24T09:39:40;100447.44;;;17.66;100.00
35519;BME280;21627;48.216;16.482;2023-06-24T09:42:07;100456.03;;;17.74;100.00
35519;BME280;21627;48.216;16.482;2023-06-24T09:44:35;100447.22;;;17.79;100.00
35519;BME280;21627;48.216;16.482;2023-06-24T09:47:02;100444.63;;;17.82;100.00
35519;BME280;21627;48.216;16.482;2023-06-24T09:49:29;100453.25;;;17.87;100.00
35519;BME280;21627;48.216;16.482;2023-06-24T09:51:58;100448.56;;;18.03;100.00
35519;BME280;21627;48.216;16.482;2023-06-24T09:54:28;100442.41;;;18.07;100.00
35519;BME280;21627;48.216;16.482;2023-06-24T09:57:02;100447.50;;;18.13;100.00
35519;BME280;21627;48.216;16.482;2023-06-24T09:59:31;100446.56;;;18.17;100.00
35519;BME280;21627;48.216;16.482;2023-06-24T10:02:02;100443.88;;;18.20;100.00
35519;BME280;21627;48.216;16.482;2023-06-24T10:04:31;100449.94;;;18.22;100.00
35519;BME280;21627;48.216;16.482;2023-06-24T10:06:59;100450.88;;;18.18;100.00
35519;BME280;21627;48.216;16.482;2023-06-24T10:09:27;100442.97;;;18.21;100.00
35519;BME280;21627;48.216;16.482;2023-06-24T10:11:54;100449.88;;;18.24;100.00
35519;BME280;21627;48.216;16.482;2023-06-24T10:14:22;100446.38;;;18.25;100.00
35519;BME280;21627;48.216;16.482;2023-06-24T10:16:49;100438.69;;;18.17;100.00
35519;BME280;21627;48.216;16.482;2023-06-24T10:19:20;100455.13;;;18.24;100.00
35519;BME280;21627;48.216;16.482;2023-06-24T10:21:59;100446.31;;;18.28;100.00
35519;BME280;21627;48.216;16.482;2023-06-24T10:24:35;100448.09;;;18.26;100.00
35519;BME280;21627;48.216;16.482;2023-06-24T10:32:07;100452.56;;;18.22;100.00
35519;BME280;21627;48.216;16.482;2023-06-24T10:34:45;100449.97;;;18.19;100.00
35519;BME280;21627;48.216;16.482;2023-06-24T10:37:33;100446.31;;;18.28;100.00
35519;BME280;21627;48.216;16.482;2023-06-24T10:40:02;100444.81;;;18.16;100.00
35519;BME280;21627;48.216;16.482;2023-06-24T10:42:43;100449.97;;;18.19;100.00
35519;BME280;21627;48.216;16.482;2023-06-24T10:47:51;100442.41;;;18.05;100.00
35519;BME280;21627;48.216;16.482;2023-06-24T10:50:23;100435.31;;;18.10;100.00
35519;BME280;21627;48.216;16.482;2023-06-24T10:52:53;100421.47;;;18.05;100.00
35519;BME280;21627;48.216;16.482;2023-06-24T10:55:24;100435.34;;;18.09;100.00
35519;BME280;21627;48.216;16.482;2023-06-24T10:57:53;100426.78;;;18.02;100.00
35519;BME280;21627;48.216;16.482;2023-06-24T11:00:21;100432.88;;;18.01;100.00
35519;BME280;21627;48.216;16.482;2023-06-24T11:02:48;100430.00;;;18.15;100.00
35519;BME280;21627;48.216;16.482;2023-06-24T11:05:16;100435.47;;;18.04;100.00
35519;BME280;21627;48.216;16.482;2023-06-24T11:07:43;100431.16;;;18.02;100.00
35519;BME280;21627;48.216;16.482;2023-06-24T11:10:15;100428.47;;;18.05;100.00
35519;BME280;21627;48.216;16.482;2023-06-24T11:12:43;100434.66;;;18.01;100.00
35519;BME280;21627;48.216;16.482;2023-06-24T11:15:13;100420.69;;;18.02;100.00
35519;BME280;21627;48.216;16.482;2023-06-24T11:17:41;100425.72;;;18.11;100.00
35519;BME280;21627;48.216;16.482;2023-06-24T11:20:13;100424.84;;;18.12;100.00
35519;BME280;21627;48.216;16.482;2023-06-24T11:22:43;100425.59;;;18.17;100.00
35519;BME280;21627;48.216;16.482;2023-06-24T11:25:20;100423.03;;;18.14;100.00
35519;BME280;21627;48.216;16.482;2023-06-24T11:27:51;100410.63;;;18.24;100.00
35519;BME280;21627;48.216;16.482;2023-06-24T11:30:20;100421.09;;;18.24;100.00
35519;BME280;21627;48.216;16.482;2023-06-24T11:32:47;100403.63;;;18.24;100.00
35519;BME280;21627;48.216;16.482;2023-06-24T11:35:16;100408.91;;;18.23;100.00
35519;BME280;21627;48.216;16.482;2023-06-24T11:37:47;100421.78;;;18.32;100.00
35519;BME280;21627;48.216;16.482;2023-06-24T11:40:17;100425.31;;;18.31;100.00
35519;BME280;21627;48.216;16.482;2023-06-24T11:42:47;100423.63;;;18.28;100.00
35519;BME280;21627;48.216;16.482;2023-06-24T11:45:21;100419.97;;;18.37;100.00
35519;BME280;21627;48.216;16.482;2023-06-24T11:47:49;100415.53;;;18.39;100.00
35519;BME280;21627;48.216;16.482;2023-06-24T11:50:16;100413.66;;;18.44;100.00
35519;BME280;21627;48.216;16.482;2023-06-24T11:52:48;100412.72;;;18.48;100.00
35519;BME280;21627;48.216;16.482;2023-06-24T11:55:19;100415.53;;;18.39;100.00
35519;BME280;21627;48.216;16.482;2023-06-24T11:58:00;100410.88;;;18.52;100.00
35519;BME280;21627;48.216;16.482;2023-06-24T12:00:38;100410.03;;;18.51;100.00
35519;BME280;21627;48.216;16.482;2023-06-24T12:03:09;100406.66;;;18.46;100.00
35519;BME280;21627;48.216;16.482;2023-06-24T12:05:39;100415.34;;;18.48;100.00
35519;BME280;21627;48.216;16.482;2023-06-24T12:08:13;100409.94;;;18.56;100.00
35519;BME280;21627;48.216;16.482;2023-06-24T12:10:44;100406.53;;;18.52;100.00
35519;BME280;21627;48.216;16.482;2023-06-24T12:13:12;100409.94;;;18.54;100.00
35519;BME280;21627;48.216;16.482;2023-06-24T12:15:39;100414.25;;;18.58;100.00
35519;BME280;21627;48.216;16.482;2023-06-24T12:18:07;100415.00;;;18.64;100.00
35519;BME280;21627;48.216;16.482;2023-06-24T12:20:34;100417.41;;;18.73;100.00
35519;BME280;21627;48.216;16.482;2023-06-24T12:23:05;100418.28;;;18.72;100.00
35519;BME280;21627;48.216;16.482;2023-06-24T12:25:33;100419.22;;;18.69;100.00
35519;BME280;21627;48.216;16.482;2023-06-24T12:28:00;100423.53;;;18.72;100.00
35519;BME280;21627;48.216;16.482;2023-06-24T12:30:28;100423.59;;;18.70;100.00
35519;BME280;21627;48.216;16.482;2023-06-24T12:32:55;100426.31;;;18.66;100.00
35519;BME280;21627;48.216;16.482;2023-06-24T12:35:23;100430.50;;;18.73;100.00
35519;BME280;21627;48.216;16.482;2023-06-24T12:37:53;100431.25;;;18.79;100.00
35519;BME280;21627;48.216;16.482;2023-06-24T12:40:21;100433.09;;;18.74;100.00
35519;BME280;21627;48.216;16.482;2023-06-24T12:42:48;100420.13;;;18.70;100.00
35519;BME280;21627;48.216;16.482;2023-06-24T12:45:15;100419.72;;;18.88;100.00
35519;BME280;21627;48.216;16.482;2023-06-24T12:47:45;100426.91;;;18.80;100.00
35519;BME280;21627;48.216;16.482;2023-06-24T12:50:12;100426.16;;;18.72;100.00
35519;BME280;21627;48.216;16.482;2023-06-24T12:52:39;100427.78;;;18.79;100.00
35519;BME280;21627;48.216;16.482;2023-06-24T12:55:07;100421.69;;;18.77;100.00
35519;BME280;21627;48.216;16.482;2023-06-24T12:57:35;100420.56;;;18.89;100.00